| time (UTC) | temp F | wind direction | speed MPH | gust MPH | rain 1hr in | rain 24hr in | rain mn in | humidity % | barometer mb |
| 20260507010332 | 62 | 238 | 0.0 | 0.0 | 0.00 | 0.00 | 0.00 | 79 | 988.7 |
| 20260507005826 | 62 | 238 | 0.0 | 0.0 | 0.00 | 0.00 | 0.00 | 78 | 989.0 |
| 20260507005320 | 62 | 238 | 0.0 | 0.0 | 0.00 | 0.00 | 0.00 | 78 | 989.3 |
| 20260507004312 | 63 | 238 | 0.0 | 0.0 | 0.00 | 0.00 | 0.00 | 79 | 989.6 |
| 20260507003812 | 63 | 238 | 0.0 | 0.0 | 0.00 | 0.00 | 0.00 | 79 | 989.4 |
| 20260507002308 | 64 | 238 | 0.0 | 0.0 | 0.00 | 0.00 | 0.00 | 78 | 989.2 |
| 20260507001805 | 64 | 238 | 0.0 | 0.0 | 0.00 | 0.00 | 0.00 | 78 | 989.0 |
| 20260507001305 | 64 | 238 | 0.0 | 0.0 | 0.00 | 0.00 | 0.00 | 78 | 989.1 |
| 20260507000802 | 64 | 238 | 0.0 | 0.0 | 0.00 | 0.00 | 0.00 | 78 | 988.8 |
| 20260507000300 | 64 | 238 | 0.0 | 0.0 | 0.00 | 0.00 | 0.00 | 78 | 988.9 |
| 20260506235256 | 65 | 238 | 0.0 | 0.0 | 0.00 | 0.00 | 0.00 | 79 | 988.6 |
| 20260506234756 | 65 | 238 | 0.0 | 1.0 | 0.00 | 0.00 | 0.00 | 79 | 988.4 |
| 20260506233756 | 65 | 238 | 0.0 | 0.0 | 0.00 | 0.00 | 0.00 | 80 | 988.4 |
| 20260506233254 | 66 | 238 | 0.0 | 0.0 | 0.00 | 0.00 | 0.00 | 79 | 988.1 |
| 20260506232754 | 66 | 238 | 0.0 | 0.0 | 0.00 | 0.00 | 0.00 | 78 | 987.9 |
| 20260506232255 | 66 | 238 | 0.0 | 0.0 | 0.00 | 0.00 | 0.00 | 77 | 987.9 |
| 20260506231751 | 66 | 238 | 0.0 | 0.0 | 0.00 | 0.00 | 0.00 | 77 | 987.7 |
| 20260506231253 | 66 | 238 | 0.0 | 0.0 | 0.00 | 0.00 | 0.00 | 77 | 987.7 |
| 20260506230748 | 67 | 238 | 0.0 | 0.0 | 0.00 | 0.00 | 0.00 | 77 | 987.7 |
| 20260506230249 | 67 | 238 | 0.0 | 1.0 | 0.00 | 0.00 | 0.00 | 77 | 987.6 |
| 20260506225747 | 67 | 236 | 0.0 | 1.0 | 0.00 | 0.00 | 0.00 | 77 | 987.7 |
| 20260506225247 | 67 | 231 | 0.0 | 1.0 | 0.00 | 0.00 | 0.00 | 77 | 987.7 |
| 20260506224744 | 67 | 231 | 0.0 | 3.0 | 0.00 | 0.00 | 0.00 | 78 | 987.5 |
| 20260506223745 | 67 | 213 | 0.0 | 0.0 | 0.00 | 0.00 | 0.00 | 80 | 987.6 |
| 20260506222742 | 68 | 245 | 0.0 | 2.0 | 0.00 | 0.00 | 0.00 | 82 | 987.6 |
| 20260506222241 | 68 | 245 | 0.0 | 2.0 | 0.00 | 0.00 | 0.00 | 81 | 987.4 |
| 20260506221743 | 68 | 235 | 0.0 | 0.0 | 0.00 | 0.00 | 0.00 | 80 | 987.4 |
| 20260506221242 | 69 | 235 | 0.0 | 1.0 | 0.00 | 0.00 | 0.00 | 80 | 987.3 |
| 20260506220743 | 69 | 234 | 0.0 | 1.0 | 0.00 | 0.00 | 0.00 | 80 | 987.2 |
| 20260506215738 | 69 | 264 | 0.0 | 1.0 | 0.00 | 0.00 | 0.00 | 80 | 987.1 |
| 20260506215238 | 69 | 267 | 0.0 | 1.0 | 0.00 | 0.00 | 0.00 | 80 | 986.8 |
| 20260506214739 | 69 | 268 | 0.0 | 0.0 | 0.00 | 0.00 | 0.00 | 82 | 986.9 |
| 20260506214238 | 69 | 268 | 0.0 | 0.0 | 0.00 | 0.00 | 0.00 | 81 | 986.9 |
| 20260506213737 | 69 | 267 | 0.0 | 0.0 | 0.00 | 0.00 | 0.00 | 82 | 986.8 |
| 20260506213239 | 69 | 268 | 0.0 | 0.0 | 0.00 | 0.00 | 0.00 | 81 | 987.0 |
| 20260506212238 | 70 | 268 | 0.0 | 0.0 | 0.00 | 0.00 | 0.00 | 80 | 986.9 |
| 20260506211733 | 70 | 268 | 0.0 | 0.0 | 0.00 | 0.00 | 0.00 | 81 | 986.7 |
| 20260506211233 | 70 | 268 | 0.0 | 0.0 | 0.00 | 0.00 | 0.00 | 81 | 986.7 |
| 20260506210735 | 69 | 268 | 0.0 | 0.0 | 0.00 | 0.00 | 0.00 | 82 | 986.6 |
| 20260506210234 | 69 | 268 | 0.0 | 0.0 | 0.00 | 0.00 | 0.00 | 82 | 986.5 |
| 20260506205733 | 69 | 268 | 0.0 | 0.0 | 0.00 | 0.00 | 0.00 | 82 | 986.2 |
| 20260506204734 | 69 | 268 | 0.0 | 1.0 | 0.00 | 0.00 | 0.00 | 83 | 986.2 |
| 20260506203735 | 68 | 268 | 0.0 | 0.0 | 0.00 | 0.00 | 0.00 | 85 | 986.2 |
| 20260506203235 | 68 | 268 | 0.0 | 0.0 | 0.00 | 0.00 | 0.00 | 85 | 986.1 |
| 20260506202733 | 68 | 268 | 0.0 | 0.0 | 0.00 | 0.00 | 0.00 | 84 | 986.2 |
| 20260506201235 | 68 | 268 | 0.0 | 0.0 | 0.00 | 0.00 | 0.00 | 83 | 986.3 |
| 20260506200732 | 69 | 268 | 0.0 | 0.0 | 0.00 | 0.00 | 0.00 | 83 | 986.3 |
| 20260506200230 | 69 | 268 | 0.0 | 0.0 | 0.00 | 0.00 | 0.00 | 82 | 986.2 |
| 20260506195731 | 69 | 268 | 0.0 | 0.0 | 0.00 | 0.00 | 0.00 | 82 | 986.3 |
| 20260506195232 | 69 | 268 | 0.0 | 0.0 | 0.00 | 0.00 | 0.00 | 81 | 986.3 |
| 20260506194728 | 69 | 268 | 0.0 | 0.0 | 0.00 | 0.00 | 0.00 | 80 | 986.3 |
| 20260506193722 | 70 | 267 | 0.0 | 0.0 | 0.00 | 0.00 | 0.00 | 77 | 986.2 |
| 20260506193220 | 70 | 268 | 0.0 | 0.0 | 0.00 | 0.00 | 0.00 | 76 | 986.3 |
| 20260506192713 | 71 | 268 | 0.0 | 0.0 | 0.00 | 0.00 | 0.00 | 75 | 986.3 |
| 20260506192210 | 71 | 268 | 0.0 | 0.0 | 0.00 | 0.00 | 0.00 | 74 | 986.2 |
| 20260506191707 | 71 | 267 | 0.0 | 0.0 | 0.00 | 0.00 | 0.00 | 73 | 986.4 |
| 20260506191206 | 72 | 267 | 0.0 | 0.0 | 0.00 | 0.00 | 0.00 | 75 | 986.4 |
| 20260506190207 | 71 | 267 | 0.0 | 0.0 | 0.00 | 0.00 | 0.00 | 75 | 986.4 |
| 20260506185705 | 71 | 267 | 0.0 | 0.0 | 0.00 | 0.00 | 0.00 | 77 | 986.3 |
| 20260506185207 | 71 | 267 | 0.0 | 0.0 | 0.00 | 0.00 | 0.00 | 77 | 986.4 |
| 20260506184704 | 70 | 267 | 0.0 | 0.0 | 0.00 | 0.00 | 0.00 | 79 | 986.5 |
| 20260506184202 | 70 | 268 | 0.0 | 0.0 | 0.00 | 0.00 | 0.00 | 81 | 986.3 |
| 20260506183702 | 69 | 267 | 0.0 | 0.0 | 0.00 | 0.00 | 0.00 | 82 | 986.3 |
| 20260506183202 | 69 | 268 | 0.0 | 0.0 | 0.00 | 0.00 | 0.00 | 82 | 986.3 |
| 20260506182702 | 68 | 267 | 0.0 | 0.0 | 0.00 | 0.00 | 0.00 | 83 | 986.4 |
| 20260506182202 | 68 | 267 | 0.0 | 0.0 | 0.00 | 0.00 | 0.00 | 83 | 986.5 |
| 20260506181659 | 68 | 268 | 0.0 | 0.0 | 0.00 | 0.00 | 0.00 | 82 | 986.6 |
| 20260506180658 | 68 | 268 | 0.0 | 0.0 | 0.00 | 0.00 | 0.00 | 83 | 986.6 |
| 20260506180157 | 68 | 268 | 0.0 | 0.0 | 0.00 | 0.00 | 0.00 | 82 | 986.6 |
| 20260506175659 | 68 | 268 | 0.0 | 0.0 | 0.00 | 0.00 | 0.00 | 81 | 986.6 |
| 20260506175152 | 68 | 268 | 0.0 | 0.0 | 0.00 | 0.00 | 0.00 | 81 | 986.6 |
| 20260506174647 | 68 | 267 | 0.0 | 0.0 | 0.00 | 0.00 | 0.00 | 80 | 986.7 |
| 20260506174141 | 68 | 268 | 0.0 | 0.0 | 0.00 | 0.00 | 0.00 | 79 | 986.6 |
| 20260506173635 | 68 | 267 | 0.0 | 0.0 | 0.00 | 0.00 | 0.00 | 78 | 986.6 |
| 20260506172118 | 69 | 267 | 0.0 | 0.0 | 0.00 | 0.00 | 0.00 | 78 | 986.6 |
| 20260506171611 | 69 | 267 | 0.0 | 0.0 | 0.00 | 0.00 | 0.00 | 77 | 986.6 |
| 20260506171105 | 69 | 255 | 0.0 | 0.0 | 0.00 | 0.00 | 0.00 | 77 | 986.6 |
| 20260506170559 | 69 | 255 | 0.0 | 0.0 | 0.00 | 0.00 | 0.00 | 76 | 986.6 |
| 20260506170054 | 70 | 267 | 0.0 | 0.0 | 0.00 | 0.00 | 0.00 | 76 | 986.6 |
| 20260506165547 | 70 | 267 | 0.0 | 0.0 | 0.00 | 0.00 | 0.00 | 75 | 986.6 |
| 20260506165039 | 71 | 268 | 0.0 | 0.0 | 0.00 | 0.00 | 0.00 | 75 | 986.6 |
| 20260506164534 | 71 | 259 | 0.0 | 0.0 | 0.00 | 0.00 | 0.00 | 74 | 986.6 |
| 20260506163523 | 71 | 259 | 0.0 | 1.0 | 0.00 | 0.00 | 0.00 | 73 | 986.5 |
| 20260506163017 | 71 | 267 | 0.0 | 1.0 | 0.00 | 0.00 | 0.00 | 75 | 986.5 |
| 20260506162511 | 71 | 267 | 0.0 | 1.0 | 0.00 | 0.00 | 0.00 | 77 | 986.6 |
| 20260506162004 | 70 | 267 | 0.0 | 0.0 | 0.00 | 0.00 | 0.00 | 77 | 986.6 |
| 20260506160951 | 69 | 267 | 0.0 | 1.0 | 0.00 | 0.00 | 0.00 | 80 | 986.6 |
| 20260506160447 | 69 | 268 | 0.0 | 0.0 | 0.00 | 0.00 | 0.00 | 82 | 986.6 |
| 20260506155942 | 68 | 267 | 0.0 | 0.0 | 0.00 | 0.00 | 0.00 | 83 | 986.6 |
| 20260506155434 | 67 | 268 | 0.0 | 0.0 | 0.00 | 0.00 | 0.00 | 84 | 986.6 |
| 20260506154928 | 67 | 267 | 0.0 | 0.0 | 0.00 | 0.00 | 0.00 | 85 | 986.7 |
| 20260506154422 | 67 | 268 | 0.0 | 0.0 | 0.00 | 0.00 | 0.00 | 84 | 986.7 |
| 20260506153921 | 66 | 267 | 0.0 | 0.0 | 0.00 | 0.00 | 0.00 | 84 | 986.8 |
| 20260506153420 | 66 | 268 | 0.0 | 1.0 | 0.00 | 0.00 | 0.00 | 85 | 986.9 |
| 20260506152916 | 66 | 267 | 0.0 | 1.0 | 0.00 | 0.00 | 0.00 | 85 | 986.8 |
| 20260506152418 | 66 | 267 | 0.0 | 1.0 | 0.00 | 0.00 | 0.00 | 86 | 986.8 |
| 20260506151917 | 65 | 247 | 0.0 | 1.0 | 0.00 | 0.00 | 0.00 | 86 | 986.8 |
| 20260506151418 | 65 | 267 | 0.0 | 2.0 | 0.00 | 0.00 | 0.00 | 87 | 986.8 |
| 20260506150419 | 65 | 267 | 0.0 | 0.0 | 0.00 | 0.00 | 0.00 | 88 | 986.6 |
| 20260506145917 | 64 | 264 | 0.0 | 0.0 | 0.00 | 0.00 | 0.00 | 90 | 986.6 |
| 20260506145417 | 64 | 172 | 0.0 | 0.0 | 0.00 | 0.00 | 0.00 | 90 | 986.8 |
| 20260506144918 | 63 | 172 | 0.0 | 0.0 | 0.00 | 0.00 | 0.00 | 90 | 986.9 |
| 20260506144415 | 63 | 172 | 0.0 | 0.0 | 0.00 | 0.00 | 0.00 | 90 | 987.2 |
| 20260506143918 | 0 | 0.0 | 0.0 | 0.00 | 0.00 | 0.00 | 987.0 | ||
| 20260506143415 | 0 | 0.0 | 0.0 | 0.00 | 0.00 | 0.00 | 986.9 | ||
| 20260506142817 | 0 | 0.0 | 0.0 | 0.00 | 0.00 | 0.00 | 986.9 | ||
| 20260506141816 | 0 | 0.0 | 0.0 | 0.00 | 0.00 | 0.00 | 987.1 | ||
| 20260506141226 | 0 | 0.0 | 0.0 | 0.00 | 0.00 | 0.00 | 987.1 | ||
| 20260506140722 | 0 | 0.0 | 0.0 | 0.00 | 0.00 | 0.00 | 987.5 | ||
| 20260506140121 | 0 | 0.0 | 0.0 | 0.00 | 0.00 | 0.00 | 987.3 | ||
| 20260506135622 | 0 | 0.0 | 0.0 | 0.00 | 0.00 | 0.00 | 987.4 | ||
| 20260506135116 | 0 | 0.0 | 0.0 | 0.00 | 0.00 | 0.00 | 987.4 | ||
| 20260506134611 | 0 | 0.0 | 0.0 | 0.00 | 0.00 | 0.00 | 987.3 | ||
| 20260506134107 | 0 | 0.0 | 0.0 | 0.00 | 0.00 | 0.00 | 987.4 | ||
| 20260506133521 | 0 | 0.0 | 0.0 | 0.00 | 0.00 | 0.00 | 987.3 | ||
| 20260506133018 | 0 | 0.0 | 0.0 | 0.00 | 0.00 | 0.00 | 987.3 | ||
| 20260506132514 | 0 | 0.0 | 0.0 | 0.00 | 0.00 | 0.00 | 987.1 | ||
| 20260506132012 | 0 | 0.0 | 0.0 | 0.00 | 0.00 | 0.00 | 987.1 | ||
| 20260506131511 | 0 | 0.0 | 0.0 | 0.00 | 0.00 | 0.00 | 987.1 | ||
| 20260506131011 | 0 | 0.0 | 0.0 | 0.00 | 0.00 | 0.00 | 987.3 | ||
| 20260506130419 | 0 | 0.0 | 0.0 | 0.00 | 0.00 | 0.00 | 987.4 | ||
| 20260506125917 | 0 | 0.0 | 0.0 | 0.00 | 0.00 | 0.00 | 987.5 | ||
| 20260506125317 | 0 | 0.0 | 0.0 | 0.00 | 0.00 | 0.00 | 987.4 | ||
| 20260506124816 | 0 | 0.0 | 0.0 | 0.00 | 0.00 | 0.00 | 987.5 | ||
| 20260506124317 | 0 | 0.0 | 0.0 | 0.00 | 0.00 | 0.00 | 987.6 | ||
| 20260506123810 | 0 | 0.0 | 0.0 | 0.00 | 0.00 | 0.00 | 987.6 | ||
| 20260506123301 | 0 | 0.0 | 0.0 | 0.00 | 0.00 | 0.00 | 987.5 | ||
| 20260506122710 | 0 | 0.0 | 0.0 | 0.00 | 0.00 | 0.00 | 987.5 | ||
| 20260506122118 | 0 | 0.0 | 0.0 | 0.00 | 0.00 | 0.00 | 987.5 | ||
| 20260506121006 | 0 | 0.0 | 0.0 | 0.00 | 0.00 | 0.00 | 987.5 | ||
| 20260506115816 | 0 | 0.0 | 0.0 | 0.00 | 0.00 | 0.00 | 987.5 | ||
| 20260506115316 | 0 | 0.0 | 0.0 | 0.00 | 0.00 | 0.00 | 987.6 | ||
| 20260506114817 | 0 | 0.0 | 0.0 | 0.00 | 0.00 | 0.00 | 987.7 | ||
| 20260506113117 | 0 | 0.0 | 0.0 | 0.00 | 0.00 | 0.00 | 987.7 | ||
| 20260506112525 | 0 | 0.0 | 0.0 | 0.00 | 0.00 | 0.00 | 987.7 | ||
| 20260506112023 | 0 | 0.0 | 0.0 | 0.00 | 0.00 | 0.00 | 987.6 | ||
| 20260506111012 | 0 | 0.0 | 0.0 | 0.00 | 0.00 | 0.00 | 987.4 | ||
| 20260506110515 | 0 | 0.0 | 0.0 | 0.00 | 0.00 | 0.00 | 987.4 | ||
| 20260506105415 | 0 | 0.0 | 0.0 | 0.00 | 0.00 | 0.00 | 987.4 | ||
| 20260506104912 | 0 | 0.0 | 0.0 | 0.00 | 0.00 | 0.00 | 987.2 | ||
| 20260506104317 | 0 | 0.0 | 0.0 | 0.00 | 0.00 | 0.00 | 987.3 | ||
| 20260506103816 | 0 | 0.0 | 0.0 | 0.00 | 0.00 | 0.00 | 987.0 | ||
| 20260506103316 | 0 | 0.0 | 0.0 | 0.00 | 0.00 | 0.00 | 987.0 | ||
| 20260506102812 | 0 | 0.0 | 0.0 | 0.00 | 0.00 | 0.00 | 987.0 | ||
| 20260506101717 | 0 | 0.0 | 0.0 | 0.00 | 0.00 | 0.00 | 986.8 | ||
| 20260506100115 | 0 | 0.0 | 0.0 | 0.00 | 0.00 | 0.00 | 986.7 | ||
| 20260506095613 | 0 | 0.0 | 0.0 | 0.00 | 0.00 | 0.00 | 986.5 | ||
| 20260506095022 | 0 | 0.0 | 0.0 | 0.00 | 0.00 | 0.00 | 986.5 | ||
| 20260506094424 | 0 | 0.0 | 0.0 | 0.00 | 0.00 | 0.00 | 986.5 | ||
| 20260506093407 | 0 | 0.0 | 0.0 | 0.00 | 0.00 | 0.00 | 986.4 | ||
| 20260506092815 | 0 | 0.0 | 0.0 | 0.00 | 0.00 | 0.00 | 986.4 | ||
| 20260506092222 | 0 | 0.0 | 0.0 | 0.00 | 0.00 | 0.00 | 986.5 | ||
| 20260506091722 | 0 | 0.0 | 0.0 | 0.00 | 0.00 | 0.00 | 986.5 | ||
| 20260506091217 | 0 | 0.0 | 0.0 | 0.00 | 0.00 | 0.00 | 986.5 | ||
| 20260506090713 | 0 | 0.0 | 0.0 | 0.00 | 0.00 | 0.00 | 986.5 | ||
| 20260506090209 | 0 | 0.0 | 0.0 | 0.00 | 0.00 | 0.00 | 986.6 | ||
| 20260506085623 | 0 | 0.0 | 0.0 | 0.00 | 0.00 | 0.00 | 986.6 | ||
| 20260506085106 | 0 | 0.0 | 0.0 | 0.00 | 0.00 | 0.00 | 986.7 | ||
| 20260506084513 | 0 | 0.0 | 0.0 | 0.00 | 0.00 | 0.00 | 986.7 | ||
| 20260506083919 | 0 | 0.0 | 0.0 | 0.00 | 0.00 | 0.00 | 986.6 | ||
| 20260506083418 | 0 | 0.0 | 0.0 | 0.00 | 0.00 | 0.00 | 986.7 | ||
| 20260506082916 | 0 | 0.0 | 0.0 | 0.00 | 0.00 | 0.00 | 986.7 | ||
| 20260506081808 | 0 | 0.0 | 0.0 | 0.00 | 0.00 | 0.00 | 986.7 | ||
| 20260506081305 | 0 | 0.0 | 0.0 | 0.00 | 0.00 | 0.00 | 986.8 | ||
| 20260506080720 | 0 | 0.0 | 0.0 | 0.00 | 0.00 | 0.00 | 986.8 | ||
| 20260506080212 | 0 | 0.0 | 0.0 | 0.00 | 0.00 | 0.00 | 986.8 | ||
| 20260506073455 | 66 | 267 | 0.0 | 1.0 | 0.00 | 0.00 | 0.00 | 58 | 986.8 |
| 20260506072948 | 66 | 268 | 0.0 | 0.0 | 0.00 | 0.00 | 0.00 | 58 | 986.7 |
| 20260506072443 | 66 | 268 | 0.0 | 0.0 | 0.00 | 0.00 | 0.00 | 57 | 986.7 |
| 20260506071937 | 67 | 268 | 0.0 | 0.0 | 0.00 | 0.00 | 0.00 | 56 | 986.8 |
| 20260506071430 | 67 | 268 | 0.0 | 0.0 | 0.00 | 0.00 | 0.00 | 55 | 986.8 |
| 20260506070419 | 67 | 267 | 0.0 | 0.0 | 0.00 | 0.00 | 0.00 | 55 | 986.8 |
| 20260506062330 | 68 | 171 | 0.0 | 0.0 | 0.00 | 0.00 | 0.00 | 52 | 987.5 |
| 20260506061825 | 68 | 172 | 0.0 | 0.0 | 0.00 | 0.00 | 0.00 | 52 | 987.5 |
| 20260506061319 | 68 | 172 | 0.0 | 0.0 | 0.00 | 0.00 | 0.00 | 51 | 987.6 |
| 20260506060813 | 68 | 172 | 0.0 | 0.0 | 0.00 | 0.00 | 0.00 | 51 | 987.5 |
| 20260506060308 | 68 | 171 | 0.0 | 0.0 | 0.00 | 0.00 | 0.00 | 51 | 987.6 |
| 20260506051252 | 68 | 172 | 0.0 | 0.0 | 0.00 | 0.00 | 0.00 | 50 | 988.1 |
| 20260506050752 | 69 | 171 | 0.0 | 0.0 | 0.00 | 0.00 | 0.00 | 50 | 988.1 |
| 20260506050253 | 69 | 171 | 0.0 | 0.0 | 0.00 | 0.00 | 0.00 | 50 | 988.1 |
| 20260506044749 | 69 | 171 | 0.0 | 0.0 | 0.00 | 0.00 | 0.00 | 48 | 988.2 |
| 20260506044249 | 69 | 172 | 0.0 | 0.0 | 0.00 | 0.00 | 0.00 | 48 | 988.3 |
| 20260506043750 | 69 | 172 | 0.0 | 0.0 | 0.00 | 0.00 | 0.00 | 47 | 988.2 |
| 20260506043249 | 69 | 172 | 0.0 | 0.0 | 0.00 | 0.00 | 0.00 | 47 | 988.2 |
| 20260506042749 | 69 | 172 | 0.0 | 0.0 | 0.00 | 0.00 | 0.00 | 47 | 988.2 |
| 20260506042244 | 69 | 171 | 0.0 | 0.0 | 0.00 | 0.00 | 0.00 | 47 | 988.3 |
| 20260506041743 | 69 | 268 | 0.0 | 0.0 | 0.00 | 0.00 | 0.00 | 47 | 988.2 |
| 20260506041245 | 70 | 268 | 0.0 | 0.0 | 0.00 | 0.00 | 0.00 | 46 | 988.2 |
| 20260506040743 | 70 | 267 | 0.0 | 0.0 | 0.00 | 0.00 | 0.00 | 46 | 988.2 |
| 20260506040242 | 70 | 267 | 0.0 | 0.0 | 0.00 | 0.00 | 0.00 | 46 | 988.2 |
| 20260506035241 | 70 | 267 | 0.0 | 0.0 | 0.00 | 0.00 | 0.00 | 46 | 988.2 |
| 20260506034741 | 70 | 258 | 0.0 | 1.0 | 0.00 | 0.00 | 0.00 | 45 | 988.1 |
| 20260506034239 | 70 | 257 | 0.0 | 1.0 | 0.00 | 0.00 | 0.00 | 45 | 988.1 |
| 20260506033736 | 70 | 171 | 0.0 | 0.0 | 0.00 | 0.00 | 0.00 | 44 | 988.2 |
| 20260506033236 | 70 | 171 | 0.0 | 0.0 | 0.00 | 0.00 | 0.00 | 44 | 988.1 |
| 20260506032737 | 69 | 172 | 0.0 | 0.0 | 0.00 | 0.00 | 0.00 | 44 | 988.1 |
| 20260506032236 | 69 | 171 | 0.0 | 0.0 | 0.00 | 0.00 | 0.00 | 44 | 988.2 |
| 20260506031236 | 69 | 172 | 0.0 | 0.0 | 0.00 | 0.00 | 0.00 | 44 | 988.1 |
| 20260506030737 | 69 | 171 | 0.0 | 0.0 | 0.00 | 0.00 | 0.00 | 43 | 988.1 |
| 20260506030230 | 70 | 172 | 0.0 | 0.0 | 0.00 | 0.00 | 0.00 | 43 | 988.1 |
| 20260506025725 | 70 | 171 | 0.0 | 0.0 | 0.00 | 0.00 | 0.00 | 43 | 988.1 |
| 20260506025219 | 70 | 171 | 0.0 | 0.0 | 0.00 | 0.00 | 0.00 | 43 | 988.2 |
| 20260506024713 | 70 | 171 | 0.0 | 0.0 | 0.00 | 0.00 | 0.00 | 43 | 988.2 |
| 20260506023701 | 70 | 172 | 0.0 | 0.0 | 0.00 | 0.00 | 0.00 | 41 | 988.2 |
| 20260506023153 | 70 | 172 | 0.0 | 0.0 | 0.00 | 0.00 | 0.00 | 41 | 988.2 |
| 20260506022649 | 71 | 171 | 0.0 | 0.0 | 0.00 | 0.00 | 0.00 | 40 | 988.2 |
| 20260506022143 | 71 | 171 | 0.0 | 0.0 | 0.00 | 0.00 | 0.00 | 40 | 988.1 |
| 20260506021637 | 71 | 172 | 0.0 | 0.0 | 0.00 | 0.00 | 0.00 | 40 | 988.1 |
| 20260506021131 | 71 | 172 | 0.0 | 0.0 | 0.00 | 0.00 | 0.00 | 40 | 988.1 |
| 20260506015613 | 71 | 172 | 0.0 | 0.0 | 0.00 | 0.00 | 0.00 | 39 | 988.2 |
| 20260506015106 | 71 | 172 | 0.0 | 0.0 | 0.00 | 0.00 | 0.00 | 39 | 988.2 |
| 20260506014601 | 71 | 172 | 0.0 | 0.0 | 0.00 | 0.00 | 0.00 | 39 | 988.2 |
| 20260506013548 | 71 | 172 | 0.0 | 0.0 | 0.00 | 0.00 | 0.00 | 38 | 988.1 |
| 20260506013043 | 71 | 172 | 0.0 | 0.0 | 0.00 | 0.00 | 0.00 | 38 | 988.0 |
| 20260506012535 | 72 | 172 | 0.0 | 0.0 | 0.00 | 0.00 | 0.00 | 38 | 987.9 |
| 20260506012030 | 72 | 171 | 0.0 | 0.0 | 0.00 | 0.00 | 0.00 | 38 | 987.9 |
| 20260506011525 | 72 | 172 | 0.0 | 0.0 | 0.00 | 0.00 | 0.00 | 37 | 987.8 |